sensor_id;sensor_type;location;lat;lon;timestamp;P1;durP1;ratioP1;P2;durP2;ratioP2
15982;SDS011;14442;50.196;8.096;2022-11-23T00:01:12;1.37;;;0.60;;
15982;SDS011;14442;50.196;8.096;2022-11-23T00:03:40;1.97;;;0.90;;
15982;SDS011;14442;50.196;8.096;2022-11-23T00:06:06;3.10;;;0.50;;
15982;SDS011;14442;50.196;8.096;2022-11-23T00:08:33;2.00;;;0.57;;
15982;SDS011;14442;50.196;8.096;2022-11-23T00:11:00;2.73;;;0.40;;
15982;SDS011;14442;50.196;8.096;2022-11-23T00:13:28;4.07;;;0.53;;
15982;SDS011;14442;50.196;8.096;2022-11-23T00:15:55;1.77;;;0.43;;
15982;SDS011;14442;50.196;8.096;2022-11-23T00:18:22;0.90;;;0.40;;
15982;SDS011;14442;50.196;8.096;2022-11-23T00:20:48;1.30;;;0.50;;
15982;SDS011;14442;50.196;8.096;2022-11-23T00:23:15;0.87;;;0.40;;
15982;SDS011;14442;50.196;8.096;2022-11-23T00:25:43;2.27;;;0.60;;
15982;SDS011;14442;50.196;8.096;2022-11-23T00:28:10;1.30;;;0.30;;
15982;SDS011;14442;50.196;8.096;2022-11-23T00:30:39;0.97;;;0.60;;
15982;SDS011;14442;50.196;8.096;2022-11-23T00:33:05;1.50;;;0.40;;
15982;SDS011;14442;50.196;8.096;2022-11-23T00:35:32;1.20;;;0.40;;
15982;SDS011;14442;50.196;8.096;2022-11-23T00:37:59;0.53;;;0.40;;
15982;SDS011;14442;50.196;8.096;2022-11-23T00:40:26;2.60;;;0.40;;
15982;SDS011;14442;50.196;8.096;2022-11-23T00:42:52;2.90;;;0.80;;
15982;SDS011;14442;50.196;8.096;2022-11-23T00:45:19;3.30;;;0.50;;
15982;SDS011;14442;50.196;8.096;2022-11-23T00:47:47;3.03;;;0.43;;
15982;SDS011;14442;50.196;8.096;2022-11-23T00:50:15;1.73;;;0.30;;
15982;SDS011;14442;50.196;8.096;2022-11-23T00:52:42;0.63;;;0.40;;
15982;SDS011;14442;50.196;8.096;2022-11-23T00:55:09;2.83;;;0.73;;
15982;SDS011;14442;50.196;8.096;2022-11-23T00:57:35;1.40;;;0.50;;
15982;SDS011;14442;50.196;8.096;2022-11-23T01:00:02;1.50;;;0.50;;
15982;SDS011;14442;50.196;8.096;2022-11-23T01:02:30;2.73;;;0.50;;
15982;SDS011;14442;50.196;8.096;2022-11-23T01:05:01;0.30;;;0.27;;
15982;SDS011;14442;50.196;8.096;2022-11-23T01:07:27;1.17;;;0.40;;
15982;SDS011;14442;50.196;8.096;2022-11-23T01:09:55;1.93;;;0.50;;
15982;SDS011;14442;50.196;8.096;2022-11-23T01:12:22;3.60;;;0.50;;
15982;SDS011;14442;50.196;8.096;2022-11-23T01:14:51;4.60;;;0.87;;
15982;SDS011;14442;50.196;8.096;2022-11-23T01:17:18;5.63;;;1.00;;
15982;SDS011;14442;50.196;8.096;2022-11-23T01:19:45;3.40;;;0.80;;
15982;SDS011;14442;50.196;8.096;2022-11-23T01:22:13;6.53;;;0.70;;
15982;SDS011;14442;50.196;8.096;2022-11-23T01:24:39;5.00;;;0.60;;
15982;SDS011;14442;50.196;8.096;2022-11-23T01:27:06;3.37;;;0.67;;
15982;SDS011;14442;50.196;8.096;2022-11-23T01:29:33;1.87;;;0.53;;
15982;SDS011;14442;50.196;8.096;2022-11-23T01:32:00;2.83;;;0.60;;
15982;SDS011;14442;50.196;8.096;2022-11-23T01:34:26;1.57;;;0.57;;
15982;SDS011;14442;50.196;8.096;2022-11-23T01:36:53;3.27;;;0.67;;
15982;SDS011;14442;50.196;8.096;2022-11-23T01:39:21;3.53;;;0.40;;
15982;SDS011;14442;50.196;8.096;2022-11-23T01:41:48;2.53;;;0.50;;
15982;SDS011;14442;50.196;8.096;2022-11-23T01:44:21;1.60;;;0.50;;
15982;SDS011;14442;50.196;8.096;2022-11-23T01:46:50;3.57;;;0.50;;
15982;SDS011;14442;50.196;8.096;2022-11-23T01:49:16;1.37;;;0.40;;
15982;SDS011;14442;50.196;8.096;2022-11-23T01:51:44;4.00;;;0.63;;
15982;SDS011;14442;50.196;8.096;2022-11-23T01:54:15;1.57;;;0.67;;
15982;SDS011;14442;50.196;8.096;2022-11-23T01:56:48;1.70;;;0.63;;
15982;SDS011;14442;50.196;8.096;2022-11-23T01:59:18;2.40;;;0.40;;
15982;SDS011;14442;50.196;8.096;2022-11-23T02:01:46;1.40;;;0.73;;
15982;SDS011;14442;50.196;8.096;2022-11-23T02:04:15;2.40;;;0.50;;
15982;SDS011;14442;50.196;8.096;2022-11-23T02:06:47;1.50;;;0.70;;
15982;SDS011;14442;50.196;8.096;2022-11-23T02:09:14;2.37;;;0.70;;
15982;SDS011;14442;50.196;8.096;2022-11-23T02:11:42;1.47;;;0.50;;
15982;SDS011;14442;50.196;8.096;2022-11-23T02:14:10;1.63;;;0.50;;
15982;SDS011;14442;50.196;8.096;2022-11-23T02:16:37;0.87;;;0.60;;
15982;SDS011;14442;50.196;8.096;2022-11-23T02:19:05;1.70;;;0.47;;
15982;SDS011;14442;50.196;8.096;2022-11-23T02:21:37;1.07;;;0.50;;
15982;SDS011;14442;50.196;8.096;2022-11-23T02:24:06;1.07;;;0.40;;
15982;SDS011;14442;50.196;8.096;2022-11-23T02:26:39;2.73;;;0.30;;
15982;SDS011;14442;50.196;8.096;2022-11-23T02:29:06;0.93;;;0.53;;
15982;SDS011;14442;50.196;8.096;2022-11-23T02:31:35;1.80;;;0.30;;
15982;SDS011;14442;50.196;8.096;2022-11-23T02:34:02;1.03;;;0.50;;
15982;SDS011;14442;50.196;8.096;2022-11-23T02:36:36;2.07;;;0.47;;
15982;SDS011;14442;50.196;8.096;2022-11-23T02:39:06;1.27;;;0.50;;
15982;SDS011;14442;50.196;8.096;2022-11-23T02:41:36;1.20;;;0.50;;
15982;SDS011;14442;50.196;8.096;2022-11-23T02:44:05;1.80;;;0.40;;
15982;SDS011;14442;50.196;8.096;2022-11-23T02:46:39;1.80;;;0.30;;
15982;SDS011;14442;50.196;8.096;2022-11-23T02:49:06;0.57;;;0.40;;
15982;SDS011;14442;50.196;8.096;2022-11-23T02:51:33;1.20;;;0.40;;
15982;SDS011;14442;50.196;8.096;2022-11-23T02:53:59;3.73;;;0.47;;
15982;SDS011;14442;50.196;8.096;2022-11-23T02:56:26;0.50;;;0.40;;
15982;SDS011;14442;50.196;8.096;2022-11-23T02:58:53;0.70;;;0.40;;
15982;SDS011;14442;50.196;8.096;2022-11-23T03:01:21;2.97;;;0.73;;
15982;SDS011;14442;50.196;8.096;2022-11-23T03:03:48;2.73;;;0.57;;
15982;SDS011;14442;50.196;8.096;2022-11-23T03:06:14;0.80;;;0.40;;
15982;SDS011;14442;50.196;8.096;2022-11-23T03:08:41;0.67;;;0.50;;
15982;SDS011;14442;50.196;8.096;2022-11-23T03:11:08;3.10;;;0.40;;
15982;SDS011;14442;50.196;8.096;2022-11-23T03:13:34;0.70;;;0.70;;
15982;SDS011;14442;50.196;8.096;2022-11-23T03:16:01;0.93;;;0.40;;
15982;SDS011;14442;50.196;8.096;2022-11-23T03:18:29;0.53;;;0.30;;
15982;SDS011;14442;50.196;8.096;2022-11-23T03:21:00;0.27;;;0.20;;
15982;SDS011;14442;50.196;8.096;2022-11-23T03:23:27;0.80;;;0.30;;
15982;SDS011;14442;50.196;8.096;2022-11-23T03:25:54;0.57;;;0.40;;
15982;SDS011;14442;50.196;8.096;2022-11-23T03:28:21;0.60;;;0.30;;
15982;SDS011;14442;50.196;8.096;2022-11-23T03:30:48;0.40;;;0.40;;
15982;SDS011;14442;50.196;8.096;2022-11-23T03:33:15;1.43;;;0.40;;
15982;SDS011;14442;50.196;8.096;2022-11-23T03:35:44;0.47;;;0.30;;
15982;SDS011;14442;50.196;8.096;2022-11-23T03:38:11;0.77;;;0.40;;
15982;SDS011;14442;50.196;8.096;2022-11-23T03:40:39;1.40;;;0.40;;
15982;SDS011;14442;50.196;8.096;2022-11-23T03:43:05;1.43;;;0.50;;
15982;SDS011;14442;50.196;8.096;2022-11-23T03:45:32;0.83;;;0.40;;
15982;SDS011;14442;50.196;8.096;2022-11-23T03:47:59;0.70;;;0.40;;
15982;SDS011;14442;50.196;8.096;2022-11-23T03:50:25;0.60;;;0.40;;
15982;SDS011;14442;50.196;8.096;2022-11-23T03:52:55;0.67;;;0.20;;
15982;SDS011;14442;50.196;8.096;2022-11-23T03:55:21;0.40;;;0.30;;
15982;SDS011;14442;50.196;8.096;2022-11-23T03:57:48;0.90;;;0.40;;
15982;SDS011;14442;50.196;8.096;2022-11-23T04:00:15;0.90;;;0.30;;
15982;SDS011;14442;50.196;8.096;2022-11-23T04:02:42;0.43;;;0.20;;
15982;SDS011;14442;50.196;8.096;2022-11-23T04:05:09;1.03;;;0.30;;
15982;SDS011;14442;50.196;8.096;2022-11-23T04:07:35;0.27;;;0.20;;
15982;SDS011;14442;50.196;8.096;2022-11-23T04:10:04;0.40;;;0.40;;
15982;SDS011;14442;50.196;8.096;2022-11-23T04:12:31;0.73;;;0.30;;
15982;SDS011;14442;50.196;8.096;2022-11-23T04:14:58;0.67;;;0.30;;
15982;SDS011;14442;50.196;8.096;2022-11-23T04:17:25;0.90;;;0.60;;
15982;SDS011;14442;50.196;8.096;2022-11-23T04:19:51;0.70;;;0.47;;
15982;SDS011;14442;50.196;8.096;2022-11-23T04:22:18;0.40;;;0.30;;
15982;SDS011;14442;50.196;8.096;2022-11-23T04:24:45;0.63;;;0.20;;
15982;SDS011;14442;50.196;8.096;2022-11-23T04:27:13;0.40;;;0.40;;
15982;SDS011;14442;50.196;8.096;2022-11-23T04:29:39;0.40;;;0.23;;
15982;SDS011;14442;50.196;8.096;2022-11-23T04:32:06;0.50;;;0.30;;
15982;SDS011;14442;50.196;8.096;2022-11-23T04:34:33;1.20;;;0.40;;
15982;SDS011;14442;50.196;8.096;2022-11-23T04:37:00;1.50;;;0.50;;
15982;SDS011;14442;50.196;8.096;2022-11-23T04:39:26;0.77;;;0.40;;
15982;SDS011;14442;50.196;8.096;2022-11-23T04:41:53;0.80;;;0.40;;
15982;SDS011;14442;50.196;8.096;2022-11-23T04:44:21;0.83;;;0.40;;
15982;SDS011;14442;50.196;8.096;2022-11-23T04:46:48;1.33;;;0.50;;
15982;SDS011;14442;50.196;8.096;2022-11-23T04:49:15;1.90;;;0.40;;
15982;SDS011;14442;50.196;8.096;2022-11-23T04:51:42;0.30;;;0.27;;
15982;SDS011;14442;50.196;8.096;2022-11-23T04:54:09;0.60;;;0.30;;
15982;SDS011;14442;50.196;8.096;2022-11-23T04:56:35;0.93;;;0.40;;
15982;SDS011;14442;50.196;8.096;2022-11-23T04:59:02;1.80;;;0.37;;
15982;SDS011;14442;50.196;8.096;2022-11-23T05:01:30;0.53;;;0.50;;
15982;SDS011;14442;50.196;8.096;2022-11-23T05:03:57;1.00;;;0.40;;
15982;SDS011;14442;50.196;8.096;2022-11-23T05:06:24;2.27;;;0.50;;
15982;SDS011;14442;50.196;8.096;2022-11-23T05:08:50;1.17;;;0.50;;
15982;SDS011;14442;50.196;8.096;2022-11-23T05:11:17;0.47;;;0.30;;
15982;SDS011;14442;50.196;8.096;2022-11-23T05:13:45;0.93;;;0.40;;
15982;SDS011;14442;50.196;8.096;2022-11-23T05:16:11;0.43;;;0.30;;
15982;SDS011;14442;50.196;8.096;2022-11-23T05:18:39;0.53;;;0.50;;
15982;SDS011;14442;50.196;8.096;2022-11-23T05:21:06;1.20;;;0.50;;
15982;SDS011;14442;50.196;8.096;2022-11-23T05:23:33;1.20;;;0.50;;
15982;SDS011;14442;50.196;8.096;2022-11-23T05:25:59;0.50;;;0.40;;
15982;SDS011;14442;50.196;8.096;2022-11-23T05:28:26;0.90;;;0.40;;
15982;SDS011;14442;50.196;8.096;2022-11-23T05:30:53;2.70;;;0.40;;
15982;SDS011;14442;50.196;8.096;2022-11-23T05:33:20;1.63;;;0.53;;
15982;SDS011;14442;50.196;8.096;2022-11-23T05:35:48;0.87;;;0.43;;
15982;SDS011;14442;50.196;8.096;2022-11-23T05:38:15;0.40;;;0.30;;
15982;SDS011;14442;50.196;8.096;2022-11-23T05:40:43;1.30;;;0.60;;
15982;SDS011;14442;50.196;8.096;2022-11-23T05:43:10;1.33;;;0.40;;
15982;SDS011;14442;50.196;8.096;2022-11-23T05:45:36;1.10;;;0.50;;
15982;SDS011;14442;50.196;8.096;2022-11-23T05:48:03;0.47;;;0.30;;
15982;SDS011;14442;50.196;8.096;2022-11-23T05:50:30;0.40;;;0.30;;
15982;SDS011;14442;50.196;8.096;2022-11-23T05:52:59;1.13;;;0.30;;
15982;SDS011;14442;50.196;8.096;2022-11-23T05:55:26;1.20;;;0.50;;
15982;SDS011;14442;50.196;8.096;2022-11-23T05:57:53;1.00;;;0.50;;
15982;SDS011;14442;50.196;8.096;2022-11-23T06:00:20;0.70;;;0.40;;
15982;SDS011;14442;50.196;8.096;2022-11-23T06:02:47;1.10;;;0.40;;
15982;SDS011;14442;50.196;8.096;2022-11-23T06:05:14;0.30;;;0.30;;
15982;SDS011;14442;50.196;8.096;2022-11-23T06:07:41;0.93;;;0.50;;
15982;SDS011;14442;50.196;8.096;2022-11-23T06:10:09;0.53;;;0.30;;
15982;SDS011;14442;50.196;8.096;2022-11-23T06:12:37;0.60;;;0.30;;
15982;SDS011;14442;50.196;8.096;2022-11-23T06:15:04;0.87;;;0.30;;
15982;SDS011;14442;50.196;8.096;2022-11-23T06:17:32;0.83;;;0.50;;
15982;SDS011;14442;50.196;8.096;2022-11-23T06:19:58;1.33;;;0.70;;
15982;SDS011;14442;50.196;8.096;2022-11-23T06:22:25;0.40;;;0.30;;
15982;SDS011;14442;50.196;8.096;2022-11-23T06:24:52;0.47;;;0.40;;
15982;SDS011;14442;50.196;8.096;2022-11-23T06:27:20;1.10;;;0.60;;
15982;SDS011;14442;50.196;8.096;2022-11-23T06:29:46;0.50;;;0.40;;
15982;SDS011;14442;50.196;8.096;2022-11-23T06:32:13;0.50;;;0.40;;
15982;SDS011;14442;50.196;8.096;2022-11-23T06:34:41;0.40;;;0.40;;
15982;SDS011;14442;50.196;8.096;2022-11-23T06:37:07;0.70;;;0.40;;
15982;SDS011;14442;50.196;8.096;2022-11-23T06:39:35;0.70;;;0.53;;
15982;SDS011;14442;50.196;8.096;2022-11-23T06:42:01;1.23;;;0.53;;
15982;SDS011;14442;50.196;8.096;2022-11-23T06:44:30;1.67;;;0.30;;
15982;SDS011;14442;50.196;8.096;2022-11-23T06:46:56;0.53;;;0.40;;
15982;SDS011;14442;50.196;8.096;2022-11-23T06:49:23;0.50;;;0.40;;
15982;SDS011;14442;50.196;8.096;2022-11-23T06:51:50;0.70;;;0.40;;
15982;SDS011;14442;50.196;8.096;2022-11-23T06:54:17;1.20;;;0.57;;
15982;SDS011;14442;50.196;8.096;2022-11-23T06:56:44;1.07;;;0.70;;
15982;SDS011;14442;50.196;8.096;2022-11-23T06:59:10;0.80;;;0.40;;
15982;SDS011;14442;50.196;8.096;2022-11-23T07:01:38;0.90;;;0.77;;
15982;SDS011;14442;50.196;8.096;2022-11-23T07:04:05;0.80;;;0.47;;
15982;SDS011;14442;50.196;8.096;2022-11-23T07:06:32;0.53;;;0.43;;
15982;SDS011;14442;50.196;8.096;2022-11-23T07:08:58;1.13;;;0.53;;
15982;SDS011;14442;50.196;8.096;2022-11-23T07:11:26;0.63;;;0.40;;
15982;SDS011;14442;50.196;8.096;2022-11-23T07:13:53;0.77;;;0.63;;
15982;SDS011;14442;50.196;8.096;2022-11-23T07:16:20;2.20;;;0.67;;
15982;SDS011;14442;50.196;8.096;2022-11-23T07:18:48;1.13;;;0.60;;
15982;SDS011;14442;50.196;8.096;2022-11-23T07:21:15;0.80;;;0.60;;
15982;SDS011;14442;50.196;8.096;2022-11-23T07:23:42;1.27;;;0.67;;
15982;SDS011;14442;50.196;8.096;2022-11-23T07:26:08;1.13;;;0.50;;
15982;SDS011;14442;50.196;8.096;2022-11-23T07:28:35;1.10;;;0.57;;
15982;SDS011;14442;50.196;8.096;2022-11-23T07:31:02;0.83;;;0.70;;
15982;SDS011;14442;50.196;8.096;2022-11-23T07:33:28;1.17;;;0.77;;
15982;SDS011;14442;50.196;8.096;2022-11-23T07:35:59;0.90;;;0.50;;
15982;SDS011;14442;50.196;8.096;2022-11-23T07:38:26;0.70;;;0.70;;
15982;SDS011;14442;50.196;8.096;2022-11-23T07:40:53;0.83;;;0.70;;
15982;SDS011;14442;50.196;8.096;2022-11-23T07:43:20;0.67;;;0.63;;
15982;SDS011;14442;50.196;8.096;2022-11-23T07:45:47;0.70;;;0.70;;
15982;SDS011;14442;50.196;8.096;2022-11-23T07:48:13;0.97;;;0.70;;
15982;SDS011;14442;50.196;8.096;2022-11-23T07:50:40;1.07;;;0.80;;
15982;SDS011;14442;50.196;8.096;2022-11-23T07:53:08;1.73;;;0.83;;
15982;SDS011;14442;50.196;8.096;2022-11-23T07:55:35;3.23;;;1.00;;
15982;SDS011;14442;50.196;8.096;2022-11-23T07:58:02;1.27;;;0.83;;
15982;SDS011;14442;50.196;8.096;2022-11-23T08:00:29;1.70;;;0.80;;
15982;SDS011;14442;50.196;8.096;2022-11-23T08:02:56;1.93;;;0.73;;
15982;SDS011;14442;50.196;8.096;2022-11-23T08:05:23;1.70;;;1.10;;
15982;SDS011;14442;50.196;8.096;2022-11-23T08:07:56;0.80;;;0.73;;
15982;SDS011;14442;50.196;8.096;2022-11-23T08:10:24;1.70;;;1.10;;
15982;SDS011;14442;50.196;8.096;2022-11-23T08:12:52;1.93;;;0.70;;
15982;SDS011;14442;50.196;8.096;2022-11-23T08:15:21;1.80;;;0.83;;
15982;SDS011;14442;50.196;8.096;2022-11-23T08:17:48;1.63;;;1.10;;
15982;SDS011;14442;50.196;8.096;2022-11-23T08:20:19;1.00;;;0.87;;
15982;SDS011;14442;50.196;8.096;2022-11-23T08:22:46;1.93;;;0.90;;
15982;SDS011;14442;50.196;8.096;2022-11-23T08:25:13;1.07;;;0.70;;
15982;SDS011;14442;50.196;8.096;2022-11-23T08:27:41;2.80;;;1.13;;
15982;SDS011;14442;50.196;8.096;2022-11-23T08:30:08;1.90;;;0.90;;
15982;SDS011;14442;50.196;8.096;2022-11-23T08:32:35;0.70;;;0.70;;
15982;SDS011;14442;50.196;8.096;2022-11-23T08:35:02;0.97;;;0.80;;
15982;SDS011;14442;50.196;8.096;2022-11-23T08:37:29;1.13;;;1.03;;
15982;SDS011;14442;50.196;8.096;2022-11-23T08:39:56;1.23;;;1.00;;
15982;SDS011;14442;50.196;8.096;2022-11-23T08:42:22;1.47;;;0.90;;
15982;SDS011;14442;50.196;8.096;2022-11-23T08:44:50;2.27;;;0.70;;
15982;SDS011;14442;50.196;8.096;2022-11-23T08:47:17;1.93;;;0.80;;
15982;SDS011;14442;50.196;8.096;2022-11-23T08:49:44;2.67;;;1.00;;
15982;SDS011;14442;50.196;8.096;2022-11-23T08:52:11;1.57;;;1.13;;
15982;SDS011;14442;50.196;8.096;2022-11-23T08:54:37;1.27;;;0.80;;
15982;SDS011;14442;50.196;8.096;2022-11-23T08:57:04;0.80;;;0.60;;
15982;SDS011;14442;50.196;8.096;2022-11-23T08:59:31;1.90;;;0.93;;
15982;SDS011;14442;50.196;8.096;2022-11-23T09:01:59;1.47;;;0.77;;
15982;SDS011;14442;50.196;8.096;2022-11-23T09:04:26;1.43;;;0.90;;
15982;SDS011;14442;50.196;8.096;2022-11-23T09:06:54;0.93;;;0.80;;
15982;SDS011;14442;50.196;8.096;2022-11-23T09:09:21;1.07;;;0.73;;
15982;SDS011;14442;50.196;8.096;2022-11-23T09:11:48;1.80;;;0.90;;
15982;SDS011;14442;50.196;8.096;2022-11-23T09:14:15;1.40;;;0.70;;
15982;SDS011;14442;50.196;8.096;2022-11-23T09:16:42;1.53;;;1.00;;
15982;SDS011;14442;50.196;8.096;2022-11-23T09:19:11;1.60;;;0.90;;
15982;SDS011;14442;50.196;8.096;2022-11-23T09:21:38;1.27;;;0.53;;
15982;SDS011;14442;50.196;8.096;2022-11-23T09:24:06;1.77;;;0.90;;
15982;SDS011;14442;50.196;8.096;2022-11-23T09:26:34;2.80;;;0.80;;
15982;SDS011;14442;50.196;8.096;2022-11-23T09:29:01;0.97;;;0.87;;
15982;SDS011;14442;50.196;8.096;2022-11-23T09:31:28;2.83;;;0.80;;
15982;SDS011;14442;50.196;8.096;2022-11-23T09:33:55;1.10;;;0.60;;
15982;SDS011;14442;50.196;8.096;2022-11-23T09:36:23;1.23;;;0.60;;
15982;SDS011;14442;50.196;8.096;2022-11-23T09:38:50;1.73;;;0.80;;
15982;SDS011;14442;50.196;8.096;2022-11-23T09:41:23;3.40;;;1.13;;
15982;SDS011;14442;50.196;8.096;2022-11-23T09:44:07;2.20;;;0.70;;
15982;SDS011;14442;50.196;8.096;2022-11-23T09:46:41;2.00;;;0.90;;
15982;SDS011;14442;50.196;8.096;2022-11-23T09:49:20;1.97;;;1.00;;
15982;SDS011;14442;50.196;8.096;2022-11-23T09:51:54;3.90;;;1.10;;
15982;SDS011;14442;50.196;8.096;2022-11-23T09:54:22;4.37;;;1.17;;
15982;SDS011;14442;50.196;8.096;2022-11-23T09:56:52;4.87;;;1.40;;
15982;SDS011;14442;50.196;8.096;2022-11-23T09:59:24;3.03;;;1.07;;
15982;SDS011;14442;50.196;8.096;2022-11-23T10:02:02;5.70;;;1.40;;
15982;SDS011;14442;50.196;8.096;2022-11-23T10:04:31;5.63;;;1.10;;
15982;SDS011;14442;50.196;8.096;2022-11-23T10:07:07;5.33;;;1.63;;
15982;SDS011;14442;50.196;8.096;2022-11-23T10:09:45;5.30;;;1.47;;
15982;SDS011;14442;50.196;8.096;2022-11-23T10:12:25;8.83;;;1.30;;
15982;SDS011;14442;50.196;8.096;2022-11-23T10:15:09;6.60;;;1.63;;
15982;SDS011;14442;50.196;8.096;2022-11-23T10:17:48;6.57;;;1.63;;
15982;SDS011;14442;50.196;8.096;2022-11-23T10:20:32;6.23;;;1.30;;
15982;SDS011;14442;50.196;8.096;2022-11-23T10:23:10;5.90;;;1.63;;
15982;SDS011;14442;50.196;8.096;2022-11-23T10:25:43;8.23;;;1.77;;
15982;SDS011;14442;50.196;8.096;2022-11-23T10:28:14;5.93;;;1.53;;
15982;SDS011;14442;50.196;8.096;2022-11-23T10:30:42;6.73;;;1.60;;
15982;SDS011;14442;50.196;8.096;2022-11-23T10:33:16;7.03;;;1.77;;
15982;SDS011;14442;50.196;8.096;2022-11-23T10:35:51;6.07;;;1.10;;
15982;SDS011;14442;50.196;8.096;2022-11-23T10:38:20;9.57;;;1.83;;
15982;SDS011;14442;50.196;8.096;2022-11-23T10:40:50;6.57;;;1.57;;
15982;SDS011;14442;50.196;8.096;2022-11-23T10:43:25;6.57;;;2.13;;
15982;SDS011;14442;50.196;8.096;2022-11-23T10:46:20;6.20;;;1.67;;
15982;SDS011;14442;50.196;8.096;2022-11-23T10:48:52;5.00;;;1.80;;
15982;SDS011;14442;50.196;8.096;2022-11-23T10:51:21;6.53;;;2.00;;
15982;SDS011;14442;50.196;8.096;2022-11-23T10:53:55;5.87;;;1.80;;
15982;SDS011;14442;50.196;8.096;2022-11-23T10:56:23;8.57;;;2.03;;
15982;SDS011;14442;50.196;8.096;2022-11-23T10:58:50;4.27;;;2.10;;
15982;SDS011;14442;50.196;8.096;2022-11-23T11:01:18;5.70;;;1.67;;
15982;SDS011;14442;50.196;8.096;2022-11-23T11:03:47;6.17;;;1.83;;
15982;SDS011;14442;50.196;8.096;2022-11-23T11:06:20;3.70;;;1.80;;
15982;SDS011;14442;50.196;8.096;2022-11-23T11:08:48;4.03;;;2.03;;
15982;SDS011;14442;50.196;8.096;2022-11-23T11:11:23;8.03;;;3.10;;
15982;SDS011;14442;50.196;8.096;2022-11-23T11:13:51;7.23;;;3.20;;
15982;SDS011;14442;50.196;8.096;2022-11-23T11:16:27;8.17;;;4.97;;
15982;SDS011;14442;50.196;8.096;2022-11-23T11:18:56;9.43;;;4.53;;
15982;SDS011;14442;50.196;8.096;2022-11-23T11:21:25;6.17;;;3.47;;
15982;SDS011;14442;50.196;8.096;2022-11-23T11:23:58;7.37;;;3.20;;
15982;SDS011;14442;50.196;8.096;2022-11-23T11:26:29;5.43;;;3.27;;
15982;SDS011;14442;50.196;8.096;2022-11-23T11:28:57;7.43;;;2.93;;
15982;SDS011;14442;50.196;8.096;2022-11-23T11:34:19;6.70;;;3.10;;
15982;SDS011;14442;50.196;8.096;2022-11-23T11:36:52;5.97;;;2.70;;
15982;SDS011;14442;50.196;8.096;2022-11-23T11:39:27;4.70;;;2.40;;
15982;SDS011;14442;50.196;8.096;2022-11-23T11:41:59;4.30;;;2.60;;
15982;SDS011;14442;50.196;8.096;2022-11-23T11:44:31;8.50;;;3.27;;
15982;SDS011;14442;50.196;8.096;2022-11-23T11:47:03;11.00;;;3.17;;
15982;SDS011;14442;50.196;8.096;2022-11-23T11:49:39;9.60;;;2.93;;
15982;SDS011;14442;50.196;8.096;2022-11-23T11:52:10;4.83;;;2.03;;
15982;SDS011;14442;50.196;8.096;2022-11-23T11:54:43;9.73;;;2.30;;
15982;SDS011;14442;50.196;8.096;2022-11-23T11:57:18;6.17;;;2.47;;
15982;SDS011;14442;50.196;8.096;2022-11-23T11:59:47;6.00;;;2.10;;
15982;SDS011;14442;50.196;8.096;2022-11-23T12:02:18;7.00;;;2.10;;
15982;SDS011;14442;50.196;8.096;2022-11-23T12:04:49;4.03;;;1.80;;
15982;SDS011;14442;50.196;8.096;2022-11-23T12:07:23;4.67;;;2.43;;
15982;SDS011;14442;50.196;8.096;2022-11-23T12:09:55;5.27;;;2.23;;
15982;SDS011;14442;50.196;8.096;2022-11-23T12:12:29;5.07;;;2.13;;
15982;SDS011;14442;50.196;8.096;2022-11-23T12:15:00;7.77;;;2.37;;
15982;SDS011;14442;50.196;8.096;2022-11-23T12:17:35;5.33;;;1.77;;
15982;SDS011;14442;50.196;8.096;2022-11-23T12:20:17;7.00;;;2.43;;
15982;SDS011;14442;50.196;8.096;2022-11-23T12:22:51;7.67;;;2.40;;
15982;SDS011;14442;50.196;8.096;2022-11-23T12:25:27;10.93;;;2.67;;
15982;SDS011;14442;50.196;8.096;2022-11-23T12:28:05;6.97;;;1.93;;
15982;SDS011;14442;50.196;8.096;2022-11-23T12:30:46;4.17;;;2.00;;
15982;SDS011;14442;50.196;8.096;2022-11-23T12:33:28;7.63;;;1.67;;
15982;SDS011;14442;50.196;8.096;2022-11-23T12:36:22;13.40;;;2.47;;
15982;SDS011;14442;50.196;8.096;2022-11-23T12:39:00;9.80;;;2.20;;
15982;SDS011;14442;50.196;8.096;2022-11-23T12:41:36;10.50;;;2.07;;
15982;SDS011;14442;50.196;8.096;2022-11-23T12:47:16;10.97;;;2.47;;
15982;SDS011;14442;50.196;8.096;2022-11-23T12:49:52;13.80;;;3.07;;
15982;SDS011;14442;50.196;8.096;2022-11-23T12:52:30;9.67;;;2.30;;
15982;SDS011;14442;50.196;8.096;2022-11-23T12:55:12;11.87;;;2.50;;
15982;SDS011;14442;50.196;8.096;2022-11-23T12:57:45;9.03;;;2.40;;
15982;SDS011;14442;50.196;8.096;2022-11-23T13:00:19;11.13;;;2.53;;
15982;SDS011;14442;50.196;8.096;2022-11-23T13:03:05;13.90;;;2.10;;
15982;SDS011;14442;50.196;8.096;2022-11-23T13:09:13;8.17;;;1.80;;
15982;SDS011;14442;50.196;8.096;2022-11-23T13:11:54;11.93;;;2.57;;
15982;SDS011;14442;50.196;8.096;2022-11-23T13:14:39;7.90;;;1.70;;
15982;SDS011;14442;50.196;8.096;2022-11-23T13:17:15;7.57;;;1.60;;
15982;SDS011;14442;50.196;8.096;2022-11-23T13:22:54;6.03;;;1.63;;
15982;SDS011;14442;50.196;8.096;2022-11-23T13:25:23;10.97;;;2.20;;
15982;SDS011;14442;50.196;8.096;2022-11-23T13:27:58;11.70;;;2.07;;
15982;SDS011;14442;50.196;8.096;2022-11-23T13:30:27;11.97;;;2.30;;
15982;SDS011;14442;50.196;8.096;2022-11-23T13:32:58;12.37;;;1.77;;
15982;SDS011;14442;50.196;8.096;2022-11-23T13:35:47;6.83;;;1.53;;
15982;SDS011;14442;50.196;8.096;2022-11-23T13:38:23;12.57;;;2.30;;
15982;SDS011;14442;50.196;8.096;2022-11-23T13:41:00;10.23;;;1.70;;
15982;SDS011;14442;50.196;8.096;2022-11-23T13:43:28;5.60;;;1.63;;
15982;SDS011;14442;50.196;8.096;2022-11-23T13:46:16;5.40;;;1.43;;
15982;SDS011;14442;50.196;8.096;2022-11-23T13:48:53;11.83;;;2.07;;
15982;SDS011;14442;50.196;8.096;2022-11-23T13:51:24;12.37;;;2.40;;
15982;SDS011;14442;50.196;8.096;2022-11-23T13:53:53;9.03;;;1.90;;
15982;SDS011;14442;50.196;8.096;2022-11-23T13:56:31;7.73;;;1.73;;
15982;SDS011;14442;50.196;8.096;2022-11-23T14:01:59;10.70;;;1.60;;
15982;SDS011;14442;50.196;8.096;2022-11-23T14:04:48;8.33;;;1.60;;
15982;SDS011;14442;50.196;8.096;2022-11-23T14:07:16;6.97;;;2.00;;
15982;SDS011;14442;50.196;8.096;2022-11-23T14:09:48;4.90;;;1.40;;
15982;SDS011;14442;50.196;8.096;2022-11-23T14:12:17;15.03;;;1.90;;
15982;SDS011;14442;50.196;8.096;2022-11-23T14:14:54;6.70;;;1.60;;
15982;SDS011;14442;50.196;8.096;2022-11-23T14:20:28;8.97;;;1.87;;
15982;SDS011;14442;50.196;8.096;2022-11-23T14:23:10;8.33;;;1.90;;
15982;SDS011;14442;50.196;8.096;2022-11-23T14:25:58;6.73;;;1.90;;
15982;SDS011;14442;50.196;8.096;2022-11-23T14:28:39;9.47;;;2.07;;
15982;SDS011;14442;50.196;8.096;2022-11-23T14:31:19;10.43;;;2.20;;
15982;SDS011;14442;50.196;8.096;2022-11-23T14:33:54;11.60;;;2.03;;
15982;SDS011;14442;50.196;8.096;2022-11-23T14:36:34;11.33;;;2.17;;
15982;SDS011;14442;50.196;8.096;2022-11-23T14:39:34;10.13;;;2.07;;
15982;SDS011;14442;50.196;8.096;2022-11-23T14:42:17;6.70;;;2.03;;
15982;SDS011;14442;50.196;8.096;2022-11-23T14:44:47;8.77;;;1.60;;
15982;SDS011;14442;50.196;8.096;2022-11-23T14:47:23;8.73;;;1.90;;
15982;SDS011;14442;50.196;8.096;2022-11-23T14:49:51;7.33;;;1.60;;
15982;SDS011;14442;50.196;8.096;2022-11-23T14:52:19;8.63;;;1.50;;
15982;SDS011;14442;50.196;8.096;2022-11-23T14:54:49;8.27;;;1.80;;
15982;SDS011;14442;50.196;8.096;2022-11-23T14:57:17;9.53;;;2.20;;
15982;SDS011;14442;50.196;8.096;2022-11-23T14:59:47;7.10;;;1.60;;
15982;SDS011;14442;50.196;8.096;2022-11-23T15:02:17;8.10;;;2.03;;
15982;SDS011;14442;50.196;8.096;2022-11-23T15:04:51;6.33;;;1.50;;
15982;SDS011;14442;50.196;8.096;2022-11-23T15:07:26;5.90;;;1.60;;
15982;SDS011;14442;50.196;8.096;2022-11-23T15:10:05;4.40;;;1.17;;
15982;SDS011;14442;50.196;8.096;2022-11-23T15:12:44;7.27;;;1.30;;
15982;SDS011;14442;50.196;8.096;2022-11-23T15:15:15;7.60;;;1.53;;
15982;SDS011;14442;50.196;8.096;2022-11-23T15:17:49;2.90;;;1.07;;
15982;SDS011;14442;50.196;8.096;2022-11-23T15:20:17;8.07;;;1.30;;
15982;SDS011;14442;50.196;8.096;2022-11-23T15:22:45;4.83;;;1.30;;